Terminal Aerodrome Forecast
Issued by NWS Indianapolis, IN

Home | Current Version | Previous Version | Text Only | Print | Product List | Glossary On
Versions: 1 2 3 4 5 6 7 8 9 10 11 12 13 14 15 16 17 18 19 20 21 22 23 24 25 26 27 28
000
FTUS43 KIND 080200 AAA
TAFIND
TAF AMD
KIND 080219Z 0802/0906 35009KT P6SM BKN025 OVC040
     FM081100 04007KT P6SM OVC015
     FM081300 07007KT 4SM -RA BR BKN007 OVC015
      TEMPO 0814/0817 2SM RA BR
     FM082000 13006KT 4SM -RA BR OVC006=

USA.gov is the U.S. government's official web portal to all federal, state and local government web resources and services.